Time;durP1;ratioP1;P1;durP2;ratioP2;P2;SDS_P1;SDS_P2;PMS_P1;PMS_P2;Temp;Humidity;BMP_temperature;BMP_pressure;BME280_temperature;BME280_humidity;BME280_pressure;Samples;Min_cycle;Max_cycle;Signal;HPM_P1;HPM_P2
2021/12/30 00:01:08;;;;;;;31.02;5.20;;;8.30;99.90;;;;;;5011378;28;20486;-79
2021/12/30 00:03:34;;;;;;;30.42;4.60;;;8.30;99.90;;;;;;5000041;28;20056;-79
2021/12/30 00:06:00;;;;;;;27.40;5.10;;;8.30;99.90;;;;;;4995755;28;20117;-79
2021/12/30 00:08:26;;;;;;;37.25;5.03;;;8.30;99.90;;;;;;5005787;28;20041;-79
2021/12/30 00:10:52;;;;;;;25.65;4.75;;;8.30;99.90;;;;;;5005902;28;20165;-79
2021/12/30 00:13:18;;;;;;;35.00;5.30;;;8.30;99.90;;;;;;5002099;28;20053;-79
2021/12/30 00:15:44;;;;;;;35.90;4.95;;;8.30;99.90;;;;;;5006680;28;20030;-79
2021/12/30 00:18:11;;;;;;;36.42;4.53;;;8.20;99.90;;;;;;4994225;28;20042;-79
2021/12/30 00:20:38;;;;;;;32.65;5.15;;;8.30;99.90;;;;;;5007163;28;20144;-79
2021/12/30 00:23:06;;;;;;;37.13;6.13;;;8.30;99.90;;;;;;5026326;28;20175;-79
2021/12/30 00:25:38;;;;;;;35.58;5.22;;;8.20;99.90;;;;;;5008401;28;20038;-79
2021/12/30 00:28:11;;;;;;;43.13;6.10;;;8.20;99.90;;;;;;5006299;28;20046;-79
2021/12/30 00:30:37;;;;;;;29.05;5.10;;;8.20;99.90;;;;;;4989260;28;20147;-79
2021/12/30 00:33:03;;;;;;;35.63;5.68;;;8.20;99.90;;;;;;4992109;28;20559;-79
2021/12/30 00:35:28;;;;;;;37.10;5.78;;;8.20;99.90;;;;;;5001768;28;20041;-79
2021/12/30 00:37:54;;;;;;;40.65;5.55;;;8.20;99.90;;;;;;5001879;28;20041;-79
2021/12/30 00:40:20;;;;;;;39.70;5.63;;;8.20;99.90;;;;;;5001554;28;20050;-79
2021/12/30 00:42:45;;;;;;;41.55;5.90;;;8.20;99.90;;;;;;5005050;28;20558;-79
2021/12/30 00:45:11;;;;;;;45.88;6.97;;;8.20;99.90;;;;;;5009403;28;20088;-79
2021/12/30 00:47:37;;;;;;;58.92;6.68;;;8.30;99.90;;;;;;4995472;28;20046;-79
2021/12/30 00:50:03;;;;;;;45.28;6.03;;;8.20;99.90;;;;;;5009011;28;20033;-79
2021/12/30 00:52:29;;;;;;;44.42;6.43;;;8.20;99.90;;;;;;4987860;28;20027;-79
2021/12/30 00:54:54;;;;;;;37.65;6.57;;;8.20;99.90;;;;;;5000189;28;20034;-79
2021/12/30 00:57:20;;;;;;;40.50;6.20;;;8.10;99.90;;;;;;5010198;28;20053;-79
2021/12/30 00:59:45;;;;;;;45.63;7.15;;;8.10;99.90;;;;;;5008736;28;20066;-79
2021/12/30 01:02:11;;;;;;;40.38;6.28;;;8.10;99.90;;;;;;5010380;28;20108;-79
2021/12/30 01:04:36;;;;;;;53.65;6.57;;;8.00;99.90;;;;;;5009392;28;20034;-79
2021/12/30 01:07:02;;;;;;;40.78;6.38;;;8.00;99.90;;;;;;5011644;28;20562;-79
2021/12/30 01:09:28;;;;;;;50.88;6.47;;;8.00;99.90;;;;;;5009081;28;20046;-79
2021/12/30 01:11:55;;;;;;;47.75;7.30;;;7.90;99.90;;;;;;5010512;28;20038;-79
2021/12/30 01:14:24;;;;;;;45.60;7.00;;;7.90;99.90;;;;;;4994500;28;20093;-79
2021/12/30 01:16:55;;;;;;;45.72;6.18;;;7.90;99.90;;;;;;5007369;28;20034;-79
2021/12/30 01:19:42;;;;;;;50.00;6.93;;;7.90;99.90;;;;;;5010087;28;20072;-79
2021/12/30 01:22:07;;;;;;;45.00;7.13;;;7.90;99.90;;;;;;4996898;28;20143;-79
2021/12/30 01:24:33;;;;;;;51.55;7.93;;;7.90;99.90;;;;;;4986260;28;20061;-79
2021/12/30 01:26:58;;;;;;;51.90;7.85;;;7.90;99.90;;;;;;5014129;28;20037;-79
2021/12/30 01:29:26;;;;;;;47.25;6.50;;;8.00;99.90;;;;;;5012630;28;20120;-79
2021/12/30 01:31:52;;;;;;;50.13;8.13;;;8.00;99.90;;;;;;5005460;28;20390;-79
2021/12/30 01:34:17;;;;;;;49.20;7.03;;;8.00;99.90;;;;;;5013494;28;20046;-79
2021/12/30 01:36:43;;;;;;;45.25;6.72;;;8.00;99.90;;;;;;5008108;28;20050;-79
2021/12/30 01:39:08;;;;;;;42.50;7.05;;;8.00;99.90;;;;;;4996879;28;20503;-79
2021/12/30 01:41:34;;;;;;;41.53;6.80;;;8.00;99.90;;;;;;5004338;28;20121;-79
2021/12/30 01:44:00;;;;;;;51.03;7.13;;;7.90;99.90;;;;;;5009042;28;20426;-79
2021/12/30 01:46:25;;;;;;;44.97;5.93;;;7.90;99.90;;;;;;5009878;28;20121;-79
2021/12/30 01:48:51;;;;;;;39.35;6.57;;;7.90;99.90;;;;;;5009089;28;20041;-79
2021/12/30 01:51:16;;;;;;;33.40;5.72;;;7.90;99.90;;;;;;4995438;28;20030;-79
2021/12/30 01:53:42;;;;;;;42.92;5.90;;;7.90;99.90;;;;;;5008169;28;20092;-79
2021/12/30 01:56:08;;;;;;;51.47;7.03;;;7.80;99.90;;;;;;5008616;28;20129;-79
2021/12/30 01:58:36;;;;;;;44.05;6.65;;;7.70;99.90;;;;;;5010494;28;20050;-79
2021/12/30 02:01:02;;;;;;;42.70;6.47;;;7.70;99.90;;;;;;5012002;28;20038;-79
2021/12/30 02:03:27;;;;;;;42.22;5.93;;;7.70;99.90;;;;;;5013562;28;20094;-79
2021/12/30 02:05:53;;;;;;;37.63;6.20;;;7.60;99.90;;;;;;5013017;28;20069;-79
2021/12/30 02:08:19;;;;;;;42.90;5.88;;;7.70;99.90;;;;;;4999317;28;20049;-79
2021/12/30 02:10:47;;;;;;;38.47;6.50;;;7.70;99.90;;;;;;4999709;28;20116;-79
2021/12/30 02:13:15;;;;;;;45.00;6.22;;;7.70;99.90;;;;;;4994817;28;20043;-79
2021/12/30 02:15:41;;;;;;;46.83;7.40;;;7.70;99.90;;;;;;5013247;28;20030;-79
2021/12/30 02:18:06;;;;;;;43.88;6.97;;;7.70;99.90;;;;;;5012508;28;20427;-79
2021/12/30 02:20:47;;;;;;;47.58;7.28;;;7.80;99.90;;;;;;4999661;28;20049;-79
2021/12/30 02:23:16;;;;;;;47.53;6.13;;;7.70;99.90;;;;;;5010198;28;20053;-79
2021/12/30 02:25:41;;;;;;;46.05;7.80;;;7.70;99.90;;;;;;5007686;28;20034;-79
2021/12/30 02:28:10;;;;;;;46.85;6.53;;;7.60;99.90;;;;;;5006347;28;20049;-79
2021/12/30 02:30:37;;;;;;;38.05;5.18;;;7.70;99.90;;;;;;5006220;28;20045;-79
2021/12/30 02:33:04;;;;;;;51.83;6.90;;;7.60;99.90;;;;;;4999227;28;20046;-79
2021/12/30 02:35:30;;;;;;;42.60;6.45;;;7.60;99.90;;;;;;5012771;28;20111;-79
2021/12/30 02:37:56;;;;;;;34.13;6.00;;;7.60;99.90;;;;;;5013133;28;20125;-79
2021/12/30 02:40:32;;;;;;;45.38;6.43;;;7.60;99.90;;;;;;5013062;28;20072;-79
2021/12/30 02:42:58;;;;;;;45.85;6.78;;;7.60;99.90;;;;;;4982036;28;20039;-79
2021/12/30 02:45:24;;;;;;;51.22;8.30;;;7.60;99.90;;;;;;5011682;28;20049;-79
2021/12/30 02:47:49;;;;;;;42.90;7.13;;;7.70;99.90;;;;;;5010205;28;20029;-79
2021/12/30 02:50:15;;;;;;;45.33;6.30;;;7.70;99.90;;;;;;5011414;28;20068;-78
2021/12/30 02:52:41;;;;;;;50.15;7.05;;;7.70;99.90;;;;;;5004891;28;20118;-79
2021/12/30 02:55:07;;;;;;;52.00;8.60;;;7.70;99.90;;;;;;5009243;28;20046;-79
2021/12/30 02:57:32;;;;;;;48.58;7.95;;;7.70;99.90;;;;;;5012888;28;20033;-79
2021/12/30 02:59:58;;;;;;;49.03;8.05;;;7.70;99.90;;;;;;5012663;28;20042;-79
2021/12/30 03:02:23;;;;;;;47.53;8.23;;;7.70;99.90;;;;;;5012265;28;20046;-79
2021/12/30 03:04:49;;;;;;;41.20;8.15;;;7.70;99.90;;;;;;5010837;28;20124;-79
2021/12/30 03:07:18;;;;;;;47.03;8.65;;;7.70;99.90;;;;;;4976732;28;20042;-79
2021/12/30 03:09:45;;;;;;;45.05;10.15;;;7.80;99.90;;;;;;5007913;28;20038;-79
2021/12/30 03:12:10;;;;;;;44.55;9.60;;;7.90;99.90;;;;;;5009949;28;20038;-79
2021/12/30 03:14:42;;;;;;;52.38;9.52;;;7.90;99.90;;;;;;4999604;28;20522;-79
2021/12/30 03:17:08;;;;;;;48.50;11.82;;;8.00;99.90;;;;;;4983734;28;20452;-79
2021/12/30 03:19:33;;;;;;;64.50;12.55;;;8.00;99.90;;;;;;5000507;28;20034;-79
2021/12/30 03:21:59;;;;;;;53.72;11.65;;;8.10;99.90;;;;;;4996096;28;20038;-79
2021/12/30 03:24:25;;;;;;;52.72;10.63;;;8.20;99.90;;;;;;4996349;28;20038;-79
2021/12/30 03:26:50;;;;;;;55.17;10.52;;;8.20;99.90;;;;;;4993022;28;20078;-79
2021/12/30 03:29:16;;;;;;;56.45;11.23;;;8.20;99.90;;;;;;4993891;28;20050;-79
2021/12/30 03:31:42;;;;;;;51.97;10.85;;;8.20;99.90;;;;;;4994706;28;20496;-79
2021/12/30 03:34:07;;;;;;;52.45;10.75;;;8.20;99.90;;;;;;4995048;28;20125;-79
2021/12/30 03:36:33;;;;;;;49.78;11.68;;;8.20;99.90;;;;;;5006247;28;20045;-79
2021/12/30 03:38:59;;;;;;;58.72;12.38;;;8.30;99.90;;;;;;5009059;28;20070;-79
2021/12/30 03:41:27;;;;;;;54.35;12.88;;;8.30;99.90;;;;;;5010091;28;20046;-79
2021/12/30 03:43:53;;;;;;;55.75;12.60;;;8.30;99.90;;;;;;5010361;28;20404;-79
2021/12/30 03:46:19;;;;;;;53.63;13.65;;;8.40;99.90;;;;;;5008904;28;20091;-79
2021/12/30 03:48:45;;;;;;;57.55;13.50;;;8.40;99.90;;;;;;5005398;28;20030;-79
2021/12/30 03:51:20;;;;;;;54.28;12.35;;;8.40;99.90;;;;;;4996129;28;20381;-79
2021/12/30 03:53:49;;;;;;;69.38;13.13;;;8.50;99.90;;;;;;4983274;28;20495;-79
2021/12/30 03:56:16;;;;;;;60.25;12.18;;;8.40;99.90;;;;;;5023984;28;20551;-79
2021/12/30 03:58:43;;;;;;;56.53;11.75;;;8.50;99.90;;;;;;4994750;28;20053;-79
2021/12/30 04:01:11;;;;;;;55.95;12.45;;;8.50;99.90;;;;;;5007680;28;20503;-79
2021/12/30 04:03:37;;;;;;;60.50;10.95;;;8.60;99.90;;;;;;5009150;28;20120;-79
2021/12/30 04:06:03;;;;;;;53.17;11.25;;;8.60;99.90;;;;;;4995272;28;20066;-79
2021/12/30 04:08:29;;;;;;;57.38;10.88;;;8.60;99.90;;;;;;4992200;28;20037;-79
2021/12/30 04:10:56;;;;;;;65.82;11.38;;;8.60;99.90;;;;;;5007033;28;20116;-80
2021/12/30 04:13:21;;;;;;;60.35;11.98;;;8.60;99.90;;;;;;5005374;28;20030;-79
2021/12/30 04:15:47;;;;;;;53.38;10.80;;;8.60;99.90;;;;;;5009257;28;20096;-79
2021/12/30 04:18:13;;;;;;;57.83;11.55;;;8.70;99.90;;;;;;4999983;28;20050;-80
2021/12/30 04:20:38;;;;;;;53.63;11.27;;;8.70;99.90;;;;;;4994080;28;20137;-79
2021/12/30 04:23:04;;;;;;;56.13;12.18;;;8.60;99.90;;;;;;4991887;28;20160;-79
2021/12/30 04:25:29;;;;;;;52.75;10.38;;;8.70;99.90;;;;;;5004767;28;20045;-80
2021/12/30 04:27:55;;;;;;;53.22;11.63;;;8.70;99.90;;;;;;5000412;28;20030;-79
2021/12/30 04:30:21;;;;;;;59.03;11.75;;;8.70;99.90;;;;;;4994937;28;20039;-79
2021/12/30 04:32:46;;;;;;;63.20;12.00;;;8.80;99.90;;;;;;4998178;28;20308;-79
2021/12/30 04:35:13;;;;;;;64.25;12.57;;;8.80;99.90;;;;;;4997786;28;20419;-79
2021/12/30 04:37:38;;;;;;;64.30;12.00;;;8.90;99.90;;;;;;5000461;28;20042;-79
2021/12/30 04:40:06;;;;;;;68.07;12.60;;;9.00;99.90;;;;;;5008776;28;20149;-79
2021/12/30 04:42:32;;;;;;;64.93;12.82;;;9.10;99.90;;;;;;5008817;28;20046;-79
2021/12/30 04:44:57;;;;;;;70.07;11.32;;;9.10;99.90;;;;;;5001547;28;20030;-79
2021/12/30 04:47:23;;;;;;;53.38;12.18;;;9.20;99.90;;;;;;4984765;28;20492;-79
2021/12/30 04:49:50;;;;;;;65.35;12.82;;;9.10;99.90;;;;;;4998124;28;20041;-79
2021/12/30 04:52:15;;;;;;;63.55;12.93;;;9.10;99.90;;;;;;5001397;28;20045;-79
2021/12/30 04:54:41;;;;;;;63.78;14.00;;;9.20;99.90;;;;;;5003265;28;20097;-79
2021/12/30 04:57:06;;;;;;;67.88;14.85;;;9.20;99.90;;;;;;5006466;28;20045;-79
2021/12/30 04:59:32;;;;;;;70.88;15.18;;;9.30;99.90;;;;;;5006552;28;20505;-79
2021/12/30 05:01:58;;;;;;;65.40;15.13;;;9.50;99.90;;;;;;5003955;28;20500;-80
2021/12/30 05:04:24;;;;;;;79.13;17.40;;;9.50;99.90;;;;;;5003016;28;20048;-79
2021/12/30 05:06:50;;;;;;;78.03;17.98;;;9.60;99.90;;;;;;5008211;28;20034;-78
2021/12/30 05:09:15;;;;;;;66.55;16.38;;;9.60;99.90;;;;;;4989542;28;20046;-79
2021/12/30 05:11:42;;;;;;;82.07;18.05;;;9.70;99.90;;;;;;5004793;28;20034;-79
2021/12/30 05:14:09;;;;;;;80.75;18.73;;;9.80;99.90;;;;;;4987456;28;20523;-79
2021/12/30 05:16:34;;;;;;;85.32;20.80;;;9.80;99.90;;;;;;5003856;28;20064;-79
2021/12/30 05:19:00;;;;;;;75.50;19.73;;;9.90;99.90;;;;;;5008602;28;20042;-79
2021/12/30 05:21:26;;;;;;;73.50;19.70;;;9.90;99.90;;;;;;5008305;28;20065;-79
2021/12/30 05:23:52;;;;;;;87.50;22.48;;;9.90;99.90;;;;;;4995882;28;20373;-79
2021/12/30 05:26:18;;;;;;;84.22;22.02;;;10.10;99.90;;;;;;4990604;28;20041;-79
2021/12/30 05:28:44;;;;;;;78.45;20.98;;;10.10;99.90;;;;;;4996450;28;20033;-79
2021/12/30 05:31:10;;;;;;;81.35;21.15;;;10.10;99.90;;;;;;4990532;28;20044;-79
2021/12/30 05:33:36;;;;;;;76.85;21.95;;;10.20;99.90;;;;;;4999140;28;20117;-79
2021/12/30 05:36:02;;;;;;;69.22;19.50;;;10.10;99.90;;;;;;4998988;28;20915;-79
2021/12/30 05:38:27;;;;;;;66.95;20.40;;;10.20;99.90;;;;;;4980044;28;20050;-79
2021/12/30 05:40:53;;;;;;;63.35;18.88;;;10.20;99.90;;;;;;5000630;28;20042;-79
2021/12/30 05:43:18;;;;;;;62.50;18.60;;;10.20;99.90;;;;;;4997834;28;20041;-79
2021/12/30 05:45:44;;;;;;;53.80;17.23;;;10.20;99.90;;;;;;5007912;28;20038;-79
2021/12/30 05:48:10;;;;;;;50.10;15.38;;;10.20;99.90;;;;;;4997033;28;20500;-79
2021/12/30 05:50:36;;;;;;;49.83;15.43;;;10.20;99.90;;;;;;4998784;28;20030;-79
2021/12/30 05:53:03;;;;;;;45.97;15.68;;;10.20;99.90;;;;;;5002504;28;20038;-79
2021/12/30 05:55:29;;;;;;;48.42;14.60;;;10.20;99.90;;;;;;4992755;28;20041;-79
2021/12/30 05:57:56;;;;;;;39.35;15.70;;;10.20;99.90;;;;;;5008530;28;20088;-78
2021/12/30 06:00:23;;;;;;;42.13;15.23;;;10.20;99.90;;;;;;4992794;28;20110;-79
2021/12/30 06:02:49;;;;;;;28.98;13.07;;;10.20;99.90;;;;;;4996308;28;20046;-78
2021/12/30 06:05:14;;;;;;;33.08;14.02;;;10.20;99.90;;;;;;5006761;28;20046;-78
2021/12/30 06:07:41;;;;;;;31.65;13.35;;;10.20;99.90;;;;;;4983395;28;20034;-78
2021/12/30 06:10:07;;;;;;;36.72;13.85;;;10.20;99.90;;;;;;5004092;28;20399;-78
2021/12/30 06:12:33;;;;;;;33.55;13.73;;;10.30;99.90;;;;;;4997914;28;20050;-78
2021/12/30 06:14:59;;;;;;;34.38;12.88;;;10.20;99.90;;;;;;5008552;28;20093;-78
2021/12/30 06:17:24;;;;;;;40.75;15.07;;;10.30;99.90;;;;;;5010235;28;20054;-78
2021/12/30 06:19:50;;;;;;;38.28;13.75;;;10.20;99.90;;;;;;4995379;28;20045;-78
2021/12/30 06:22:16;;;;;;;44.40;14.82;;;10.30;99.90;;;;;;5001796;28;20089;-78
2021/12/30 06:24:42;;;;;;;35.78;14.70;;;10.30;99.90;;;;;;5007359;28;20135;-78
2021/12/30 06:27:08;;;;;;;45.92;15.10;;;10.30;99.90;;;;;;5004538;28;20042;-78
2021/12/30 06:29:34;;;;;;;48.35;17.00;;;10.30;99.90;;;;;;5009740;28;20645;-78
2021/12/30 06:32:00;;;;;;;58.63;17.50;;;10.40;99.90;;;;;;5027822;28;20037;-78
2021/12/30 06:34:26;;;;;;;67.47;17.60;;;10.30;99.90;;;;;;5010729;28;20091;-78
2021/12/30 06:36:52;;;;;;;57.58;17.00;;;10.30;99.90;;;;;;5007840;28;20042;-78
2021/12/30 06:39:17;;;;;;;74.43;19.02;;;10.30;99.90;;;;;;4994065;28;20038;-78
2021/12/30 06:41:43;;;;;;;68.32;18.00;;;10.40;99.90;;;;;;5003973;28;20514;-78
2021/12/30 06:44:09;;;;;;;57.40;16.88;;;10.40;99.90;;;;;;4996322;28;20042;-78
2021/12/30 06:46:35;;;;;;;65.53;17.88;;;10.40;99.90;;;;;;4997525;28;20135;-78
2021/12/30 06:49:03;;;;;;;75.63;18.13;;;10.40;99.90;;;;;;4996297;28;20125;-78
2021/12/30 06:51:34;;;;;;;66.00;16.40;;;10.60;99.90;;;;;;5030284;28;20061;-78
2021/12/30 06:54:00;;;;;;;59.95;17.13;;;10.60;99.90;;;;;;5030918;28;20056;-78
2021/12/30 06:56:26;;;;;;;64.80;17.13;;;10.60;99.90;;;;;;5031623;28;20033;-78
2021/12/30 06:58:51;;;;;;;64.53;15.95;;;10.60;99.90;;;;;;5030375;28;20073;-78
2021/12/30 07:01:17;;;;;;;56.30;15.07;;;10.70;99.90;;;;;;5030031;28;20412;-78
2021/12/30 07:03:43;;;;;;;56.50;14.40;;;10.70;99.90;;;;;;5029635;28;20478;-77
2021/12/30 07:06:08;;;;;;;46.58;13.93;;;10.70;99.90;;;;;;5030270;28;20057;-78
2021/12/30 07:08:34;;;;;;;43.20;12.43;;;10.70;99.90;;;;;;5030538;28;20041;-78
2021/12/30 07:10:59;;;;;;;43.55;13.20;;;10.70;99.90;;;;;;5030318;28;20088;-77
2021/12/30 07:13:25;;;;;;;46.00;13.13;;;10.70;99.90;;;;;;5030831;28;20465;-78
2021/12/30 07:15:51;;;;;;;44.60;12.07;;;10.80;99.90;;;;;;5031729;28;20033;-78
2021/12/30 07:18:16;;;;;;;37.00;11.65;;;10.80;99.90;;;;;;5030675;28;20491;-78
2021/12/30 07:20:42;;;;;;;32.28;11.02;;;10.80;99.90;;;;;;5027473;28;20391;-78
2021/12/30 07:23:08;;;;;;;33.95;12.35;;;10.80;99.90;;;;;;5024718;28;20095;-78
2021/12/30 07:25:33;;;;;;;30.90;12.02;;;10.80;99.90;;;;;;5030082;28;20045;-78
2021/12/30 07:28:01;;;;;;;29.52;11.48;;;10.90;99.90;;;;;;5029111;28;20056;-78
2021/12/30 07:30:27;;;;;;;28.75;11.43;;;10.90;99.90;;;;;;5025852;28;20034;-78
2021/12/30 07:32:53;;;;;;;29.30;10.90;;;10.90;99.90;;;;;;5014082;28;20087;-78
2021/12/30 07:35:20;;;;;;;29.05;11.25;;;10.90;99.90;;;;;;5029676;28;20045;-78
2021/12/30 07:37:46;;;;;;;25.70;10.80;;;10.90;99.90;;;;;;5030598;28;20150;-78
2021/12/30 07:40:12;;;;;;;29.85;11.32;;;10.90;99.90;;;;;;5030130;28;20418;-78
2021/12/30 07:42:38;;;;;;;20.42;10.10;;;10.90;99.90;;;;;;5029917;28;20037;-78
2021/12/30 07:45:05;;;;;;;21.52;9.02;;;10.90;99.90;;;;;;5028641;28;20061;-78
2021/12/30 07:47:32;;;;;;;17.98;9.18;;;11.00;99.90;;;;;;5029138;28;20053;-78
2021/12/30 07:49:57;;;;;;;16.80;9.38;;;11.00;99.90;;;;;;5030924;28;20120;-78
2021/12/30 07:52:23;;;;;;;16.42;9.23;;;11.00;99.90;;;;;;5030976;28;20116;-78
2021/12/30 07:54:49;;;;;;;15.15;8.65;;;11.00;99.90;;;;;;5028864;28;20095;-78
2021/12/30 07:57:21;;;;;;;12.05;6.75;;;11.00;99.90;;;;;;5030781;28;20038;-78
2021/12/30 07:59:47;;;;;;;12.70;6.85;;;11.00;99.90;;;;;;5029012;28;20049;-78
2021/12/30 08:02:13;;;;;;;14.23;7.95;;;11.00;99.90;;;;;;5007860;28;20493;-78
2021/12/30 08:04:39;;;;;;;12.40;7.13;;;11.10;99.90;;;;;;5007865;28;20037;-78
2021/12/30 08:07:04;;;;;;;8.77;6.05;;;11.10;99.90;;;;;;5030559;28;20033;-78
2021/12/30 08:09:30;;;;;;;9.93;6.35;;;11.10;99.90;;;;;;5029690;28;20095;-78
2021/12/30 08:11:55;;;;;;;8.65;5.80;;;11.10;99.90;;;;;;5013783;28;20041;-78
2021/12/30 08:14:21;;;;;;;9.10;5.70;;;11.10;99.90;;;;;;5026450;28;20037;-78
2021/12/30 08:16:46;;;;;;;8.02;5.18;;;11.10;99.90;;;;;;5027127;28;20045;-77
2021/12/30 08:19:12;;;;;;;9.57;6.03;;;11.10;99.90;;;;;;5028388;28;20419;-78
2021/12/30 08:21:41;;;;;;;10.10;5.80;;;11.20;99.90;;;;;;5012094;28;20135;-78
2021/12/30 08:24:08;;;;;;;8.93;5.68;;;11.10;99.90;;;;;;5026552;28;20316;-78
2021/12/30 08:26:34;;;;;;;9.90;6.18;;;11.20;99.90;;;;;;5027495;28;20034;-78
2021/12/30 08:28:59;;;;;;;8.80;5.35;;;11.20;99.90;;;;;;5026879;28;20040;-79
2021/12/30 08:31:25;;;;;;;8.23;5.55;;;11.20;99.90;;;;;;5028014;28;20036;-78
2021/12/30 08:33:50;;;;;;;8.73;5.93;;;11.20;99.90;;;;;;5012380;28;20103;-79
2021/12/30 08:36:16;;;;;;;8.57;5.47;;;11.30;99.90;;;;;;5026924;28;20033;-78
2021/12/30 08:38:42;;;;;;;13.45;7.18;;;11.20;99.90;;;;;;5029410;28;20033;-78
2021/12/30 08:41:07;;;;;;;10.30;7.00;;;11.30;99.90;;;;;;5028138;28;20438;-78
2021/12/30 08:43:33;;;;;;;15.20;9.63;;;11.30;99.90;;;;;;5028653;28;20045;-78
2021/12/30 08:45:58;;;;;;;22.02;11.90;;;11.30;99.90;;;;;;5029324;28;20474;-79
2021/12/30 08:48:24;;;;;;;17.98;9.70;;;11.30;99.90;;;;;;5027647;28;20031;-79
2021/12/30 08:50:50;;;;;;;18.20;10.23;;;11.30;99.90;;;;;;5027567;28;20033;-79
2021/12/30 08:53:15;;;;;;;18.30;10.57;;;11.30;99.90;;;;;;5025652;28;20527;-79
2021/12/30 08:55:41;;;;;;;18.35;10.43;;;11.30;99.90;;;;;;5019508;28;20080;-79
2021/12/30 08:58:07;;;;;;;18.88;10.43;;;11.30;99.90;;;;;;5022204;28;20051;-78
2021/12/30 09:00:38;;;;;;;20.48;11.40;;;11.40;99.90;;;;;;5022855;28;20047;-79
2021/12/30 09:03:05;;;;;;;20.60;11.35;;;11.40;99.90;;;;;;5026808;28;20064;-79
2021/12/30 09:05:32;;;;;;;20.35;10.93;;;11.40;99.90;;;;;;5026919;28;20115;-79
2021/12/30 09:07:58;;;;;;;22.27;11.10;;;11.40;99.90;;;;;;5023495;28;20649;-79
2021/12/30 09:10:24;;;;;;;23.98;10.82;;;11.50;99.90;;;;;;5024855;28;20030;-79
2021/12/30 09:12:51;;;;;;;24.05;11.68;;;11.50;99.90;;;;;;5028864;28;20041;-79
2021/12/30 09:15:19;;;;;;;20.98;10.85;;;11.50;99.90;;;;;;5026346;28;20465;-78
2021/12/30 09:17:46;;;;;;;24.75;12.45;;;11.50;99.90;;;;;;5025815;28;20041;-79
2021/12/30 09:20:12;;;;;;;23.65;10.40;;;11.50;99.90;;;;;;5024503;28;20119;-79
2021/12/30 09:22:38;;;;;;;16.13;9.35;;;11.50;99.90;;;;;;5010353;28;20037;-79
2021/12/30 09:25:07;;;;;;;17.98;8.30;;;11.60;99.90;;;;;;5022826;28;20033;-79
2021/12/30 09:27:37;;;;;;;18.70;7.97;;;11.60;99.90;;;;;;5026142;28;20034;-79
2021/12/30 09:30:05;;;;;;;19.83;7.97;;;11.60;99.90;;;;;;5015426;28;20038;-79
2021/12/30 09:32:31;;;;;;;18.80;7.43;;;11.50;99.90;;;;;;5009531;28;20038;-79
2021/12/30 09:34:56;;;;;;;19.25;7.25;;;11.60;99.90;;;;;;5028315;28;20096;-80
2021/12/30 09:37:22;;;;;;;16.88;7.30;;;11.60;99.90;;;;;;5034083;28;20045;-80
2021/12/30 09:39:47;;;;;;;16.40;7.32;;;11.60;99.90;;;;;;5034630;28;20048;-80
2021/12/30 09:42:15;;;;;;;21.30;7.85;;;11.60;99.90;;;;;;5035484;28;20492;-79
2021/12/30 09:44:40;;;;;;;18.67;8.57;;;11.60;99.90;;;;;;5033722;28;20092;-80
2021/12/30 09:47:06;;;;;;;16.73;8.30;;;11.60;99.90;;;;;;5034426;28;20645;-81
2021/12/30 09:49:32;;;;;;;22.42;8.65;;;11.60;99.90;;;;;;5033843;28;20041;-80
2021/12/30 09:51:57;;;;;;;22.58;8.70;;;11.60;99.90;;;;;;5034484;28;20403;-80
2021/12/30 09:54:24;;;;;;;22.92;9.07;;;11.70;99.90;;;;;;5030300;28;20119;-80
2021/12/30 09:56:50;;;;;;;24.13;9.02;;;11.70;99.90;;;;;;5029571;28;20037;-80
2021/12/30 09:59:16;;;;;;;22.98;9.48;;;11.60;99.90;;;;;;5013413;28;20041;-81
2021/12/30 10:01:42;;;;;;;21.30;8.85;;;11.70;99.90;;;;;;5030760;28;20036;-80
2021/12/30 10:04:10;;;;;;;18.88;8.32;;;11.70;99.90;;;;;;5031027;28;20068;-80
2021/12/30 10:06:45;;;;;;;25.65;8.95;;;11.60;99.90;;;;;;5030200;28;20034;-80
2021/12/30 10:09:14;;;;;;;23.70;9.32;;;11.70;99.90;;;;;;5018663;28;20449;-79
2021/12/30 10:12:06;;;;;;;26.35;9.75;;;11.60;99.90;;;;;;5031258;28;20091;-80
2021/12/30 10:14:36;;;;;;;25.40;9.45;;;11.60;99.90;;;;;;5003257;28;20095;-80
2021/12/30 10:17:25;;;;;;;31.95;9.82;;;11.60;99.90;;;;;;5029883;28;20041;-80
2021/12/30 10:19:53;;;;;;;23.55;9.57;;;11.60;99.90;;;;;;5034553;28;20135;-80
2021/12/30 10:22:23;;;;;;;29.15;10.55;;;11.70;99.90;;;;;;5015078;28;20053;-81
2021/12/30 10:24:49;;;;;;;27.67;10.02;;;11.70;99.90;;;;;;5027097;28;20074;-81
2021/12/30 10:27:26;;;;;;;25.52;9.63;;;11.70;99.90;;;;;;5033682;28;20506;-80
2021/12/30 10:29:53;;;;;;;29.83;10.68;;;11.70;99.90;;;;;;5013495;28;20057;-80
2021/12/30 10:32:22;;;;;;;25.75;8.90;;;11.70;99.90;;;;;;5028847;28;20064;-80
2021/12/30 10:35:07;;;;;;;28.98;9.45;;;11.60;99.90;;;;;;5013880;28;20615;-80
2021/12/30 10:37:33;;;;;;;26.00;9.20;;;11.60;99.90;;;;;;5026011;28;20119;-80
2021/12/30 10:40:00;;;;;;;22.67;9.10;;;11.60;99.90;;;;;;5033232;28;20052;-81
2021/12/30 10:42:30;;;;;;;28.55;8.15;;;11.60;99.90;;;;;;5032030;28;20034;-80
2021/12/30 10:44:59;;;;;;;26.02;8.93;;;11.60;99.90;;;;;;5030726;28;20037;-81
2021/12/30 10:47:27;;;;;;;25.58;8.77;;;11.60;99.90;;;;;;5027902;28;20086;-81
2021/12/30 10:50:11;;;;;;;25.10;8.50;;;11.60;99.90;;;;;;5011835;28;20077;-80
2021/12/30 10:52:52;;;;;;;29.65;9.52;;;11.60;99.90;;;;;;5011926;28;20030;-80
2021/12/30 10:55:19;;;;;;;33.47;10.00;;;11.60;99.90;;;;;;5029113;28;20041;-80
2021/12/30 10:57:45;;;;;;;26.13;8.90;;;11.70;99.90;;;;;;5028810;28;20050;-81
2021/12/30 11:00:24;;;;;;;30.10;9.73;;;11.70;99.90;;;;;;5030209;28;20152;-80
2021/12/30 11:02:49;;;;;;;29.70;8.60;;;11.60;99.90;;;;;;5031153;28;20124;-80
2021/12/30 11:05:18;;;;;;;32.67;9.35;;;11.60;99.90;;;;;;5015518;28;20128;-81
2021/12/30 11:07:51;;;;;;;34.53;9.68;;;11.60;99.90;;;;;;5027615;28;20038;-80
2021/12/30 11:10:34;;;;;;;33.13;8.90;;;11.60;99.90;;;;;;5029264;28;20084;-80
2021/12/30 11:13:11;;;;;;;33.42;10.07;;;11.70;99.90;;;;;;5019301;28;20045;-81
2021/12/30 11:15:37;;;;;;;33.53;9.05;;;11.70;99.90;;;;;;5010761;28;20125;-80
2021/12/30 11:18:11;;;;;;;32.42;7.70;;;11.70;99.90;;;;;;5026824;28;20042;-81
2021/12/30 11:20:42;;;;;;;39.72;9.55;;;11.70;99.90;;;;;;5031236;28;20045;-80
2021/12/30 11:23:09;;;;;;;36.50;9.10;;;11.70;99.90;;;;;;5032394;28;20442;-80
2021/12/30 11:25:35;;;;;;;33.90;9.05;;;11.70;99.90;;;;;;5031357;28;20208;-80
2021/12/30 11:28:02;;;;;;;41.97;9.15;;;11.70;99.90;;;;;;5016881;28;20124;-81
2021/12/30 11:30:27;;;;;;;38.40;9.27;;;11.70;99.90;;;;;;5031612;28;20435;-80
2021/12/30 11:32:53;;;;;;;36.60;9.57;;;11.70;99.90;;;;;;5032397;28;20041;-80
2021/12/30 11:35:21;;;;;;;41.38;10.20;;;11.70;99.90;;;;;;5015268;28;20128;-80
2021/12/30 11:37:47;;;;;;;38.72;9.43;;;11.70;99.90;;;;;;5013742;28;20068;-81
2021/12/30 11:40:17;;;;;;;38.25;9.88;;;11.70;99.90;;;;;;5026621;28;20129;-81
2021/12/30 11:42:46;;;;;;;39.97;9.50;;;11.70;99.90;;;;;;5024596;28;20076;-81
2021/12/30 11:45:35;;;;;;;43.55;9.13;;;11.70;99.90;;;;;;5031630;28;20034;-80
2021/12/30 11:48:04;;;;;;;44.88;9.27;;;11.80;99.90;;;;;;5022553;28;20030;-80
2021/12/30 11:50:34;;;;;;;42.17;8.93;;;11.80;99.90;;;;;;5027295;28;20095;-81
2021/12/30 11:53:02;;;;;;;41.72;8.70;;;11.70;99.90;;;;;;5011835;28;20045;-80
2021/12/30 11:55:49;;;;;;;36.05;7.97;;;11.80;99.90;;;;;;5026462;28;20052;-80
2021/12/30 12:00:57;;;;;;;33.63;8.07;;;11.80;99.90;;;;;;5031112;28;20053;-80
2021/12/30 12:03:32;;;;;;;33.38;7.35;;;11.80;99.90;;;;;;5019582;28;20041;-81
2021/12/30 12:05:58;;;;;;;35.45;8.02;;;11.80;99.90;;;;;;5025026;28;20045;-82
2021/12/30 12:08:43;;;;;;;26.50;7.03;;;11.80;99.90;;;;;;5023191;28;20034;-81
2021/12/30 12:11:14;;;;;;;35.50;6.38;;;11.80;99.90;;;;;;5012925;28;20037;-81
2021/12/30 12:13:42;;;;;;;41.92;7.57;;;11.90;99.90;;;;;;5010616;28;20558;-81
2021/12/30 12:16:07;;;;;;;33.45;6.75;;;11.90;99.90;;;;;;5028220;28;20058;-79
2021/12/30 12:18:33;;;;;;;42.75;7.72;;;11.90;99.90;;;;;;5027324;28;20218;-79
2021/12/30 12:21:02;;;;;;;36.30;7.40;;;11.80;99.90;;;;;;5017120;28;20123;-81
2021/12/30 12:23:45;;;;;;;37.42;6.97;;;11.80;99.90;;;;;;5031339;28;20084;-80
2021/12/30 12:26:18;;;;;;;37.10;8.07;;;11.80;99.90;;;;;;5031165;28;20403;-80
2021/12/30 12:28:44;;;;;;;43.17;6.83;;;11.80;99.90;;;;;;5030495;28;20040;-80
2021/12/30 12:31:12;;;;;;;31.85;7.18;;;11.70;99.90;;;;;;5025024;28;20037;-80
2021/12/30 12:33:40;;;;;;;39.25;6.80;;;11.70;99.90;;;;;;5030839;28;20033;-81
2021/12/30 12:36:16;;;;;;;40.90;7.32;;;11.70;99.90;;;;;;5027903;28;20041;-81
2021/12/30 12:38:45;;;;;;;36.72;7.65;;;11.70;99.90;;;;;;5030989;28;20411;-80
2021/12/30 12:41:25;;;;;;;36.47;7.40;;;11.70;99.90;;;;;;5025240;28;20502;-82